Germantown, Ohio
Current Conditions -  °F | °C
As of 9:15 AM on Monday 22 Dec 2014 (Local Time) from KMWO Reporting Station
Overcast Overcast  
Wind Chill: 31°   Ceiling: 5000
Heat Index: 36°   Visibility: 7mi
Dew Point: 29°   Wind: 6mph
Humidity: 77%   Direction: 30°NNE
Pressure: 30.04"   Gusts: NA
Location:  39.63°N, 84.37°W
Report Text: KMWO 221415Z AUTO 03005KT 7SM SCT024 SCT048 OVC050 02/M02 A3004 RMK AO2 T00201017
Loading
Personal Weather Stations






























Interactive Weather Map New forecast layout! Learn more

10-Day Weather Forecast

Advertisements
Track Severe Weather on mobile